createdAt,value
2018-06-17T00:02:15.992Z,3.17
2018-06-17T00:04:44.268Z,3.53
2018-06-17T00:07:12.472Z,3.43
2018-06-17T00:09:40.738Z,3.70
2018-06-17T00:12:09.170Z,2.80
2018-06-17T00:14:37.433Z,3.53
2018-06-17T00:17:05.673Z,2.83
2018-06-17T00:19:33.889Z,2.70
2018-06-17T00:22:02.085Z,2.90
2018-06-17T00:24:30.447Z,3.20
2018-06-17T00:26:58.659Z,2.80
2018-06-17T00:29:26.890Z,2.90
2018-06-17T00:31:55.118Z,2.63
2018-06-17T00:34:23.410Z,3.20
2018-06-17T00:36:51.633Z,3.13
2018-06-17T00:39:19.598Z,3.50
2018-06-17T00:41:47.833Z,2.60
2018-06-17T00:44:16.052Z,3.17
2018-06-17T00:46:44.580Z,2.90
2018-06-17T00:49:12.868Z,3.07
2018-06-17T00:51:41.118Z,3.17
2018-06-17T00:54:09.709Z,3.80
2018-06-17T00:56:37.998Z,3.50
2018-06-17T00:59:06.209Z,3.40
2018-06-17T01:01:34.470Z,3.30
2018-06-17T01:04:02.765Z,3.60
2018-06-17T01:06:31.045Z,3.23
2018-06-17T01:08:59.069Z,3.83
2018-06-17T01:11:27.034Z,3.63
2018-06-17T01:13:55.305Z,3.23
2018-06-17T01:16:23.553Z,3.73
2018-06-17T01:18:51.807Z,3.63
2018-06-17T01:21:20.052Z,3.50
2018-06-17T01:23:48.253Z,3.80
2018-06-17T01:26:16.555Z,4.03
2018-06-17T01:28:44.770Z,3.80
2018-06-17T01:31:12.977Z,3.60
2018-06-17T01:33:41.249Z,3.30
2018-06-17T01:36:09.468Z,3.87
2018-06-17T01:38:37.673Z,3.67
2018-06-17T01:41:05.873Z,3.83
2018-06-17T01:43:34.397Z,3.30
2018-06-17T01:46:02.643Z,3.93
2018-06-17T01:48:30.867Z,3.83
2018-06-17T01:50:59.645Z,3.87
2018-06-17T01:53:27.846Z,3.93
2018-06-17T01:55:56.045Z,3.73
2018-06-17T01:58:24.293Z,4.07
2018-06-17T02:00:52.625Z,4.30
2018-06-17T02:03:26.298Z,4.20
2018-06-17T02:06:00.044Z,4.17
2018-06-17T02:09:31.325Z,4.43
2018-06-17T02:12:04.959Z,3.90
2018-06-17T02:14:38.825Z,4.30
2018-06-17T02:17:07.052Z,4.97
2018-06-17T02:19:35.277Z,5.30
2018-06-17T02:22:03.685Z,4.70
2018-06-17T02:24:31.945Z,5.10
2018-06-17T02:27:00.035Z,4.77
2018-06-17T02:29:28.513Z,4.90
2018-06-17T02:31:56.716Z,5.10
2018-06-17T02:34:24.966Z,5.53
2018-06-17T02:36:53.220Z,5.67
2018-06-17T02:39:21.494Z,5.93
2018-06-17T02:41:49.689Z,5.67
2018-06-17T02:44:18.321Z,5.47
2018-06-17T02:46:52.078Z,6.12
2018-06-17T02:49:26.037Z,6.47
2018-06-17T02:51:59.547Z,6.13
2018-06-17T02:54:33.749Z,6.77
2018-06-17T02:57:02.877Z,6.57
2018-06-17T02:59:31.255Z,6.60
2018-06-17T03:01:59.890Z,7.20
2018-06-17T03:04:28.125Z,7.00
2018-06-17T03:06:56.360Z,7.07
2018-06-17T03:09:24.939Z,8.17
2018-06-17T03:11:53.178Z,7.55
2018-06-17T03:14:21.148Z,7.77
2018-06-17T03:16:49.645Z,6.80
2018-06-17T03:19:17.949Z,7.33
2018-06-17T03:21:46.149Z,7.27
2018-06-17T03:24:14.501Z,7.40
2018-06-17T03:26:48.290Z,7.00
2018-06-17T03:29:22.305Z,8.05
2018-06-17T03:31:55.901Z,7.70
2018-06-17T03:34:24.126Z,7.13
2018-06-17T03:36:52.465Z,7.30
2018-06-17T03:39:20.443Z,9.23
2018-06-17T03:41:49.217Z,7.80
2018-06-17T03:44:17.426Z,7.33
2018-06-17T03:46:45.634Z,8.23
2018-06-17T03:49:13.901Z,7.20
2018-06-17T03:51:42.083Z,8.17
2018-06-17T03:54:10.328Z,8.57
2018-06-17T03:56:39.079Z,7.93
2018-06-17T03:59:07.565Z,8.30
2018-06-17T04:01:35.846Z,8.27
2018-06-17T04:04:03.836Z,8.15
2018-06-17T04:06:32.326Z,8.33
2018-06-17T04:09:00.595Z,9.20
2018-06-17T04:11:29.038Z,7.80
2018-06-17T04:13:57.246Z,8.37
2018-06-17T04:16:25.507Z,7.50
2018-06-17T04:18:53.476Z,7.20
2018-06-17T04:21:21.733Z,7.93
2018-06-17T04:23:49.987Z,7.30
2018-06-17T04:26:18.557Z,6.37
2018-06-17T04:28:46.829Z,6.07
2018-06-17T04:31:15.083Z,7.10
2018-06-17T04:33:43.369Z,6.83
2018-06-17T04:36:11.679Z,6.50
2018-06-17T04:38:39.920Z,5.77
2018-06-17T04:41:08.158Z,5.87
2018-06-17T04:43:36.395Z,6.27
2018-06-17T04:46:05.005Z,5.33
2018-06-17T04:48:33.257Z,5.12
2018-06-17T04:51:01.514Z,4.90
2018-06-17T04:53:29.785Z,4.63
2018-06-17T04:55:58.055Z,4.90
2018-06-17T04:58:26.285Z,5.27
2018-06-17T05:00:54.548Z,5.23
2018-06-17T05:03:22.765Z,4.90
2018-06-17T05:05:51.515Z,6.60
2018-06-17T05:08:19.757Z,5.57
2018-06-17T05:10:48.062Z,5.10
2018-06-17T05:13:16.325Z,4.80
2018-06-17T05:15:44.577Z,5.20
2018-06-17T05:18:12.822Z,4.30
2018-06-17T05:20:41.152Z,5.33
2018-06-17T05:23:09.376Z,5.73
2018-06-17T05:25:37.682Z,4.97
2018-06-17T05:28:06.322Z,4.20
2018-06-17T05:30:34.595Z,4.07
2018-06-17T05:33:02.565Z,4.70
2018-06-17T05:35:31.237Z,3.70
2018-06-17T05:37:59.480Z,4.00
2018-06-17T05:40:27.722Z,3.57
2018-06-17T05:42:56.274Z,3.83
2018-06-17T05:45:24.529Z,3.50
2018-06-17T05:47:52.753Z,3.53
2018-06-17T05:50:20.978Z,2.83
2018-06-17T05:52:49.210Z,4.10
2018-06-17T05:55:17.467Z,3.53
2018-06-17T05:57:45.702Z,2.80
2018-06-17T06:00:13.940Z,3.40
2018-06-17T06:02:42.217Z,3.20
2018-06-17T06:05:10.429Z,3.53
2018-06-17T06:07:38.653Z,3.40
2018-06-17T06:10:06.946Z,2.33
2018-06-17T06:12:35.185Z,3.03
2018-06-17T06:15:03.197Z,2.63
2018-06-17T06:17:31.449Z,3.00
2018-06-17T06:19:59.755Z,2.40
2018-06-17T06:22:28.001Z,2.47
2018-06-17T06:24:56.219Z,2.90
2018-06-17T06:27:24.558Z,3.10
2018-06-17T06:29:52.787Z,2.50
2018-06-17T06:32:21.009Z,2.90
2018-06-17T06:34:49.245Z,3.03
2018-06-17T06:37:17.604Z,2.77
2018-06-17T06:39:45.770Z,2.50
2018-06-17T06:42:14.046Z,2.30
2018-06-17T06:44:42.286Z,2.40
2018-06-17T06:47:10.481Z,2.90
2018-06-17T06:49:38.704Z,3.10
2018-06-17T06:52:06.929Z,3.20
2018-06-17T06:54:35.141Z,2.63
2018-06-17T06:57:03.867Z,2.57
2018-06-17T06:59:32.094Z,2.90
2018-06-17T07:02:11.729Z,2.90
2018-06-17T07:04:51.372Z,2.90
2018-06-17T07:07:31.222Z,3.37
2018-06-17T07:10:10.665Z,2.57
2018-06-17T07:12:38.940Z,3.20
2018-06-17T07:15:07.225Z,2.80
2018-06-17T07:17:47.020Z,2.37
2018-06-17T07:20:15.265Z,3.00
2018-06-17T07:22:43.248Z,2.50
2018-06-17T07:25:20.500Z,2.43
2018-06-17T07:27:58.865Z,3.03
2018-06-17T07:30:27.207Z,2.20
2018-06-17T07:32:55.468Z,2.50
2018-06-17T07:35:23.765Z,2.90
2018-06-17T07:37:52.034Z,2.57
2018-06-17T07:40:53.701Z,2.83
2018-06-17T07:43:22.112Z,3.03
2018-06-17T07:45:50.317Z,2.60
2018-06-17T07:48:31.621Z,2.60
2018-06-17T07:51:11.247Z,3.50
2018-06-17T07:53:39.841Z,2.97
2018-06-17T07:56:08.170Z,2.50
2018-06-17T07:58:36.352Z,2.47
2018-06-17T08:01:04.669Z,2.50
2018-06-17T08:03:32.989Z,2.87
2018-06-17T08:06:01.240Z,2.57
2018-06-17T08:08:29.593Z,3.47
2018-06-17T08:10:57.827Z,2.73
2018-06-17T08:13:26.165Z,2.70
2018-06-17T08:15:54.670Z,2.57
2018-06-17T08:18:22.945Z,2.93
2018-06-17T08:20:51.201Z,2.53
2018-06-17T08:23:19.451Z,2.60
2018-06-17T08:25:47.722Z,2.57
2018-06-17T08:28:15.697Z,2.27
2018-06-17T08:30:44.257Z,2.83
2018-06-17T08:33:12.481Z,2.40
2018-06-17T08:35:40.691Z,2.80
2018-06-17T08:38:08.678Z,2.83
2018-06-17T08:40:36.893Z,2.63
2018-06-17T08:43:05.093Z,3.40
2018-06-17T08:45:33.335Z,3.67
2018-06-17T08:48:01.542Z,2.70
2018-06-17T08:50:29.829Z,3.90
2018-06-17T08:52:58.116Z,2.87
2018-06-17T08:55:26.361Z,3.00
2018-06-17T08:57:54.681Z,3.77
2018-06-17T09:00:22.694Z,2.77
2018-06-17T09:02:50.902Z,3.13
2018-06-17T09:05:19.163Z,3.30
2018-06-17T09:07:47.417Z,2.63
2018-06-17T09:10:15.630Z,2.70
2018-06-17T09:12:43.850Z,2.80
2018-06-17T09:15:12.123Z,2.97
2018-06-17T09:17:40.103Z,3.50
2018-06-17T09:20:08.418Z,3.27
2018-06-17T09:22:36.687Z,4.17
2018-06-17T09:25:05.205Z,4.13
2018-06-17T09:27:33.400Z,3.47
2018-06-17T09:30:01.874Z,3.33
2018-06-17T09:32:30.074Z,3.00
2018-06-17T09:34:58.334Z,3.50
2018-06-17T09:37:26.973Z,3.40
2018-06-17T09:39:55.333Z,3.03
2018-06-17T09:42:23.659Z,3.03
2018-06-17T09:44:51.941Z,3.73
2018-06-17T09:47:20.401Z,3.30
2018-06-17T09:49:48.690Z,3.30
2018-06-17T09:52:17.006Z,2.90
2018-06-17T09:54:45.273Z,2.90
2018-06-17T09:57:13.525Z,3.30
2018-06-17T09:59:41.798Z,3.63
2018-06-17T10:02:10.053Z,2.67
2018-06-17T10:04:38.288Z,2.40
2018-06-17T10:07:06.520Z,2.90
2018-06-17T10:09:46.134Z,3.13
2018-06-17T10:12:14.759Z,2.40
2018-06-17T10:14:43.030Z,2.53
2018-06-17T10:17:11.305Z,2.60
2018-06-17T10:19:39.588Z,2.50
2018-06-17T10:22:07.870Z,2.73
2018-06-17T10:24:36.111Z,2.40
2018-06-17T10:27:04.383Z,2.60
2018-06-17T10:29:32.774Z,2.73
2018-06-17T10:32:00.994Z,3.13
2018-06-17T10:34:29.285Z,8.10
2018-06-17T10:36:57.529Z,4.90
2018-06-17T10:39:26.388Z,5.00
2018-06-17T10:41:54.726Z,3.30
2018-06-17T10:44:23.048Z,3.00
2018-06-17T10:46:51.282Z,2.70
2018-06-17T10:49:19.533Z,2.73
2018-06-17T10:51:47.824Z,3.43
2018-06-17T10:54:16.365Z,3.93
2018-06-17T10:56:44.630Z,2.57
2018-06-17T10:59:12.850Z,2.40
2018-06-17T11:01:41.058Z,2.50
2018-06-17T11:04:09.286Z,3.00
2018-06-17T11:06:37.501Z,3.07
2018-06-17T11:09:07.310Z,2.97
2018-06-17T11:11:35.537Z,3.00
2018-06-17T11:14:03.789Z,2.77
2018-06-17T11:16:32.100Z,2.97
2018-06-17T11:19:00.371Z,3.10
2018-06-17T11:21:28.655Z,3.10
2018-06-17T11:23:56.893Z,3.40
2018-06-17T11:26:25.094Z,2.50
2018-06-17T11:28:53.405Z,3.30
2018-06-17T11:31:21.968Z,3.10
2018-06-17T11:33:50.513Z,2.90
2018-06-17T11:36:18.510Z,2.87
2018-06-17T11:38:46.850Z,2.90
2018-06-17T11:41:15.041Z,3.30
2018-06-17T11:43:43.598Z,3.00
2018-06-17T11:46:11.869Z,3.13
2018-06-17T11:48:40.065Z,3.30
2018-06-17T11:51:08.308Z,2.50
2018-06-17T11:53:36.776Z,3.00
2018-06-17T11:56:05.090Z,2.70
2018-06-17T11:58:33.301Z,3.87
2018-06-17T12:01:01.591Z,3.10
2018-06-17T12:03:29.881Z,2.40
2018-06-17T12:05:58.538Z,2.60
2018-06-17T12:08:26.785Z,2.37
2018-06-17T12:10:55.094Z,2.53
2018-06-17T12:13:23.330Z,2.70
2018-06-17T12:15:51.697Z,2.10
2018-06-17T12:18:19.972Z,2.47
2018-06-17T12:20:48.198Z,2.20
2018-06-17T12:23:16.438Z,3.20
2018-06-17T12:25:44.693Z,2.17
2018-06-17T12:28:12.972Z,2.03
2018-06-17T12:30:41.394Z,2.50
2018-06-17T12:33:09.639Z,2.67
2018-06-17T12:35:37.863Z,2.60
2018-06-17T12:38:06.131Z,2.60
2018-06-17T12:40:34.391Z,2.80
2018-06-17T12:43:02.709Z,2.60
2018-06-17T12:45:30.984Z,2.70
2018-06-17T12:47:59.213Z,3.00
2018-06-17T12:50:27.457Z,2.83
2018-06-17T12:52:56.389Z,2.97
2018-06-17T12:55:24.345Z,2.60
2018-06-17T12:57:52.839Z,3.00
2018-06-17T13:00:21.090Z,2.73
2018-06-17T13:02:49.309Z,2.50
2018-06-17T13:05:17.942Z,3.30
2018-06-17T13:07:46.649Z,2.90
2018-06-17T13:10:15.029Z,3.00
2018-06-17T13:12:43.355Z,2.63
2018-06-17T13:15:11.666Z,2.60
2018-06-17T13:17:39.890Z,3.10
2018-06-17T13:20:08.211Z,3.43
2018-06-17T13:22:36.729Z,3.73
2018-06-17T13:25:05.118Z,4.60
2018-06-17T13:27:33.345Z,4.00
2018-06-17T13:30:01.674Z,3.90
2018-06-17T13:32:30.015Z,3.80
2018-06-17T13:34:58.214Z,4.00
2018-06-17T13:37:26.436Z,4.00
2018-06-17T13:39:54.475Z,4.53
2018-06-17T13:42:22.701Z,4.80
2018-06-17T13:44:51.015Z,4.17
2018-06-17T13:47:19.303Z,4.00
2018-06-17T13:49:47.507Z,4.47
2018-06-17T13:52:16.102Z,5.00
2018-06-17T13:54:44.306Z,4.23
2018-06-17T13:57:12.637Z,4.20
2018-06-17T13:59:40.940Z,3.07
2018-06-17T14:02:09.265Z,3.30
2018-06-17T14:04:37.593Z,3.47
2018-06-17T14:07:05.913Z,3.10
2018-06-17T14:09:34.240Z,3.47
2018-06-17T14:12:02.261Z,3.60
2018-06-17T14:14:30.585Z,3.07
2018-06-17T14:16:58.959Z,3.60
2018-06-17T14:19:27.161Z,3.20
2018-06-17T14:21:55.533Z,3.27
2018-06-17T14:24:23.941Z,3.23
2018-06-17T14:26:52.229Z,3.43
2018-06-17T14:29:20.506Z,3.17
2018-06-17T14:31:48.518Z,3.50
2018-06-17T14:34:16.868Z,3.10
2018-06-17T14:36:45.125Z,3.97
2018-06-17T14:39:13.704Z,3.57
2018-06-17T14:41:41.964Z,3.00
2018-06-17T14:44:15.622Z,3.67
2018-06-17T14:46:49.085Z,3.20
2018-06-17T14:49:22.681Z,3.00
2018-06-17T14:51:56.365Z,3.83
2018-06-17T14:54:25.117Z,2.93
2018-06-17T14:56:53.358Z,3.30
2018-06-17T14:59:21.674Z,2.57
2018-06-17T15:01:50.346Z,3.47
2018-06-17T15:04:18.671Z,3.20
2018-06-17T15:06:46.942Z,3.10
2018-06-17T15:09:15.220Z,3.30
2018-06-17T15:11:43.389Z,3.67
2018-06-17T15:14:11.347Z,3.33
2018-06-17T15:16:39.768Z,3.93
2018-06-17T15:19:07.733Z,4.43
2018-06-17T15:21:35.998Z,3.80
2018-06-17T15:24:04.258Z,3.90
2018-06-17T15:26:32.514Z,4.70
2018-06-17T15:29:00.785Z,4.70
2018-06-17T15:31:34.506Z,4.90
2018-06-17T15:34:08.488Z,5.00
2018-06-17T15:36:42.205Z,4.50
2018-06-17T15:39:15.861Z,5.83
2018-06-17T15:41:44.265Z,5.40
2018-06-17T15:44:12.522Z,4.20
2018-06-17T15:46:40.746Z,4.50
2018-06-17T15:49:08.987Z,5.00
2018-06-17T15:51:37.299Z,4.23
2018-06-17T15:54:06.168Z,5.47
2018-06-17T15:56:34.414Z,4.80
2018-06-17T15:59:02.638Z,5.47
2018-06-17T16:01:30.648Z,5.20
2018-06-17T16:03:58.986Z,5.10
2018-06-17T16:06:27.201Z,5.80
2018-06-17T16:08:55.464Z,5.00
2018-06-17T16:11:23.728Z,5.40
2018-06-17T16:13:57.317Z,5.73
2018-06-17T16:16:31.115Z,5.23
2018-06-17T16:19:04.724Z,3.47
2018-06-17T16:21:33.134Z,3.40
2018-06-17T16:24:01.373Z,3.60
2018-06-17T16:26:29.600Z,3.43
2018-06-17T16:28:57.809Z,3.33
2018-06-17T16:31:25.820Z,2.73
2018-06-17T16:33:54.082Z,3.00
2018-06-17T16:36:22.354Z,2.73
2018-06-17T16:38:50.605Z,3.20
2018-06-17T16:41:18.841Z,3.40
2018-06-17T16:43:47.111Z,3.60
2018-06-17T16:46:15.336Z,2.90
2018-06-17T16:48:43.565Z,3.20
2018-06-17T16:51:17.266Z,3.10
2018-06-17T16:53:50.971Z,3.60
2018-06-17T16:56:24.683Z,3.07
2018-06-17T16:58:58.501Z,3.40
2018-06-17T17:01:26.706Z,3.40
2018-06-17T17:03:55.024Z,2.80
2018-06-17T17:06:23.398Z,3.50
2018-06-17T17:08:51.665Z,2.87
2018-06-17T17:11:19.919Z,3.27
2018-06-17T17:13:48.290Z,3.13
2018-06-17T17:16:16.682Z,2.87
2018-06-17T17:18:44.965Z,4.30
2018-06-17T17:21:13.249Z,2.90
2018-06-17T17:23:41.504Z,3.07
2018-06-17T17:26:09.725Z,3.20
2018-06-17T17:28:38.031Z,2.70
2018-06-17T17:31:06.435Z,3.20
2018-06-17T17:33:40.090Z,3.60
2018-06-17T17:36:13.805Z,2.67
2018-06-17T17:38:47.742Z,2.50
2018-06-17T17:41:15.985Z,2.97
2018-06-17T17:43:44.450Z,3.30
2018-06-17T17:46:18.108Z,2.90
2018-06-17T17:48:46.109Z,4.60
2018-06-17T17:51:14.117Z,3.13
2018-06-17T17:53:42.386Z,3.10
2018-06-17T17:56:10.613Z,2.43
2018-06-17T17:58:38.913Z,3.20
2018-06-17T18:01:07.267Z,3.40
2018-06-17T18:03:35.622Z,3.00
2018-06-17T18:06:03.598Z,2.80
2018-06-17T18:08:31.932Z,4.10
2018-06-17T18:11:00.168Z,3.30
2018-06-17T18:13:28.371Z,3.33
2018-06-17T18:15:56.661Z,3.27
2018-06-17T18:18:24.945Z,5.80
2018-06-17T18:20:53.203Z,3.43
2018-06-17T18:23:21.905Z,3.43
2018-06-17T18:25:55.518Z,3.43
2018-06-17T18:28:29.150Z,3.07
2018-06-17T18:31:03.471Z,3.10
2018-06-17T18:33:37.149Z,2.67
2018-06-17T18:36:09.794Z,3.07
2018-06-17T18:38:39.741Z,3.70
2018-06-17T18:41:08.090Z,2.73
2018-06-17T18:43:36.636Z,3.30
2018-06-17T18:46:04.923Z,2.77
2018-06-17T18:48:33.174Z,3.37
2018-06-17T18:51:01.471Z,3.00
2018-06-17T18:53:29.749Z,2.93
2018-06-17T18:55:58.001Z,3.40
2018-06-17T18:58:26.277Z,2.90
2018-06-17T19:00:54.511Z,3.80
2018-06-17T19:03:22.845Z,2.90
2018-06-17T19:05:50.950Z,2.90
2018-06-17T19:08:24.510Z,3.40
2018-06-17T19:10:58.325Z,3.27
2018-06-17T19:13:32.045Z,3.73
2018-06-17T19:16:06.549Z,3.53
2018-06-17T19:18:34.823Z,3.47
2018-06-17T19:21:03.067Z,3.87
2018-06-17T19:23:31.289Z,3.87
2018-06-17T19:25:59.506Z,3.87
2018-06-17T19:28:27.806Z,4.13
2018-06-17T19:30:56.091Z,3.60
2018-06-17T19:33:24.309Z,3.50
2018-06-17T19:35:52.553Z,3.53
2018-06-17T19:38:20.810Z,3.83
2018-06-17T19:40:49.112Z,3.97
2018-06-17T19:43:17.069Z,3.90
2018-06-17T19:45:45.282Z,4.00
2018-06-17T19:48:13.562Z,4.50
2018-06-17T19:50:47.574Z,4.07
2018-06-17T19:53:21.041Z,3.97
2018-06-17T19:56:56.309Z,4.70
2018-06-17T19:59:29.728Z,4.30
2018-06-17T20:01:58.007Z,4.10
2018-06-17T20:04:26.281Z,3.30
2018-06-17T20:06:54.509Z,4.00
2018-06-17T20:09:23.214Z,3.13
2018-06-17T20:11:51.290Z,3.53
2018-06-17T20:14:19.539Z,3.50
2018-06-17T20:16:47.758Z,3.17
2018-06-17T20:19:16.057Z,3.30
2018-06-17T20:21:44.253Z,2.83
2018-06-17T20:24:12.562Z,2.90
2018-06-17T20:26:40.847Z,3.07
2018-06-17T20:29:09.217Z,3.17
2018-06-17T20:31:43.121Z,3.40
2018-06-17T20:34:16.829Z,2.73
2018-06-17T20:36:50.417Z,3.27
2018-06-17T20:39:24.004Z,2.90
2018-06-17T20:41:57.697Z,2.93
2018-06-17T20:44:25.813Z,3.13
2018-06-17T20:46:53.802Z,3.00
2018-06-17T20:49:22.437Z,3.00
2018-06-17T20:51:50.653Z,3.00
2018-06-17T20:54:18.901Z,2.83
2018-06-17T20:56:47.137Z,2.80
2018-06-17T20:59:15.386Z,2.83
2018-06-17T21:01:43.626Z,2.50
2018-06-17T21:04:11.874Z,4.30
2018-06-17T21:06:40.107Z,3.60
2018-06-17T21:09:09.454Z,3.17
2018-06-17T21:11:37.741Z,2.90
2018-06-17T21:14:06.150Z,2.90
2018-06-17T21:16:34.397Z,3.40
2018-06-17T21:19:08.011Z,2.83
2018-06-17T21:21:41.643Z,3.30
2018-06-17T21:24:15.289Z,2.77
2018-06-17T21:26:49.022Z,3.30
2018-06-17T21:29:17.602Z,3.10
2018-06-17T21:31:45.871Z,3.33
2018-06-17T21:34:14.110Z,2.90
2018-06-17T21:36:42.335Z,3.70
2018-06-17T21:39:11.189Z,3.10
2018-06-17T21:41:39.863Z,3.23
2018-06-17T21:44:09.090Z,2.80
2018-06-17T21:46:37.509Z,3.60
2018-06-17T21:49:05.769Z,3.47
2018-06-17T21:51:34.070Z,3.10
2018-06-17T21:54:02.279Z,2.90
2018-06-17T21:56:30.505Z,3.20
2018-06-17T21:58:59.058Z,4.07
2018-06-17T22:01:27.057Z,3.50
2018-06-17T22:03:59.531Z,3.47
2018-06-17T22:06:27.762Z,3.70
2018-06-17T22:09:01.436Z,3.30
2018-06-17T22:11:35.130Z,3.37
2018-06-17T22:14:08.798Z,3.50
2018-06-17T22:16:42.490Z,3.20
2018-06-17T22:19:16.701Z,3.37
2018-06-17T22:21:44.962Z,3.90
2018-06-17T22:24:13.241Z,3.57
2018-06-17T22:26:41.941Z,3.87
2018-06-17T22:29:10.193Z,4.60
2018-06-17T22:31:38.523Z,3.20
2018-06-17T22:34:06.799Z,3.80
2018-06-17T22:36:34.801Z,3.70
2018-06-17T22:39:03.042Z,3.60
2018-06-17T22:41:31.304Z,3.37
2018-06-17T22:43:59.681Z,3.40
2018-06-17T22:46:28.055Z,4.10
2018-06-17T22:48:56.253Z,3.47
2018-06-17T22:51:24.495Z,4.80
2018-06-17T22:54:04.141Z,3.67
2018-06-17T22:57:35.560Z,4.50
2018-06-17T23:00:09.805Z,4.20
2018-06-17T23:02:43.498Z,4.33
2018-06-17T23:05:16.956Z,3.40
2018-06-17T23:07:50.686Z,3.80
2018-06-17T23:10:18.937Z,3.40
2018-06-17T23:12:47.191Z,4.43
2018-06-17T23:15:15.174Z,3.93
2018-06-17T23:17:43.424Z,3.90
2018-06-17T23:20:11.648Z,4.40
2018-06-17T23:22:39.909Z,4.20
2018-06-17T23:25:08.160Z,4.97
2018-06-17T23:27:36.371Z,4.43
2018-06-17T23:30:04.816Z,4.40
2018-06-17T23:32:33.027Z,4.30
2018-06-17T23:35:01.291Z,5.20
2018-06-17T23:37:29.627Z,5.20
2018-06-17T23:39:57.930Z,5.80
2018-06-17T23:42:26.124Z,5.67
2018-06-17T23:44:54.089Z,5.87
2018-06-17T23:47:27.833Z,6.70
2018-06-17T23:50:01.518Z,6.10
2018-06-17T23:52:34.998Z,6.50
2018-06-17T23:55:08.687Z,6.30
2018-06-17T23:57:36.909Z,6.07
